Time;durP1;ratioP1;P1;durP2;ratioP2;P2;SDS_P1;SDS_P2;PMS_P1;PMS_P2;Temp;Humidity;BMP_temperature;BMP_pressure;BME280_temperature;BME280_humidity;BME280_pressure;Samples;Min_cycle;Max_cycle;Signal;HPM_P1;HPM_P2
2022/08/17 00:01:59;;;;;;;16.50;10.32;;;;;;;;;;8237158;28;20506;-96
2022/08/17 00:06:10;;;;;;;14.23;9.50;;;;;;;;;;8231189;28;20114;-90
2022/08/17 00:10:16;;;;;;;17.55;10.27;;;;;;;;;;8242929;28;20047;-87
2022/08/17 00:14:20;;;;;;;15.25;10.18;;;;;;;;;;8236118;28;20066;-96
2022/08/17 00:18:24;;;;;;;14.07;10.68;;;;;;;;;;8232798;28;20050;-88
2022/08/17 00:22:28;;;;;;;14.15;9.45;;;;;;;;;;8237917;28;20062;-89
2022/08/17 00:26:31;;;;;;;15.38;10.75;;;;;;;;;;8221221;28;20055;-94
2022/08/17 00:30:34;;;;;;;15.38;9.90;;;;;;;;;;8234524;28;20063;-87
2022/08/17 00:34:37;;;;;;;15.25;10.10;;;;;;;;;;8195435;28;20059;-88
2022/08/17 00:38:43;;;;;;;14.80;10.70;;;;;;;;;;8216286;28;20466;-88
2022/08/17 00:42:47;;;;;;;14.68;9.65;;;;;;;;;;8204035;28;20079;-88
2022/08/17 00:46:55;;;;;;;18.48;10.40;;;;;;;;;;8212596;28;20072;-89
2022/08/17 00:51:03;;;;;;;14.48;9.45;;;;;;;;;;8214000;28;20047;-89
2022/08/17 00:55:08;;;;;;;15.60;9.38;;;;;;;;;;8210857;28;20052;-88
2022/08/17 00:59:16;;;;;;;13.73;9.00;;;;;;;;;;8216071;28;20063;-89
2022/08/17 01:03:28;;;;;;;15.23;9.80;;;;;;;;;;8212558;28;20047;-96
2022/08/17 01:07:35;;;;;;;14.95;10.15;;;;;;;;;;8231020;28;20281;-88
2022/08/17 01:11:39;;;;;;;16.63;9.57;;;;;;;;;;8220145;28;20058;-88
2022/08/17 01:15:59;;;;;;;15.68;9.73;;;;;;;;;;8219785;28;20538;-95
2022/08/17 01:20:02;;;;;;;13.57;9.32;;;;;;;;;;8217642;28;20487;-87
2022/08/17 01:24:09;;;;;;;14.45;10.40;;;;;;;;;;8220738;28;20062;-92
2022/08/17 01:28:13;;;;;;;13.23;10.07;;;;;;;;;;8221941;28;20082;-89
2022/08/17 01:32:20;;;;;;;12.70;9.80;;;;;;;;;;8225566;28;20055;-92
2022/08/17 01:36:29;;;;;;;16.17;11.05;;;;;;;;;;8229485;28;20065;-96
2022/08/17 01:41:06;;;;;;;17.15;11.73;;;;;;;;;;8234086;28;20035;-91
2022/08/17 01:45:12;;;;;;;13.80;9.93;;;;;;;;;;8212821;28;20055;-93
2022/08/17 01:49:16;;;;;;;12.63;10.15;;;;;;;;;;8233221;28;20208;-89
2022/08/17 01:53:23;;;;;;;15.88;10.40;;;;;;;;;;8204604;28;20130;-89
2022/08/17 01:57:30;;;;;;;16.45;11.27;;;;;;;;;;8223249;28;20055;-95
2022/08/17 02:01:35;;;;;;;14.77;9.52;;;;;;;;;;8226075;28;20035;-96
2022/08/17 02:05:43;;;;;;;19.52;11.00;;;;;;;;;;8217000;28;20064;-90
2022/08/17 02:09:50;;;;;;;13.98;10.75;;;;;;;;;;8222731;28;20486;-88
2022/08/17 02:19:40;;;;;;;19.13;11.75;;;;;;;;;;8172540;29;20043;-91
2022/08/17 02:23:52;;;;;;;20.65;11.45;;;;;;;;;;8039082;29;20069;-90
2022/08/17 02:27:55;;;;;;;19.20;11.60;;;;;;;;;;8044692;29;20058;-91
2022/08/17 02:32:03;;;;;;;17.23;12.05;;;;;;;;;;8057577;29;20093;-89
2022/08/17 02:36:15;;;;;;;16.08;10.90;;;;;;;;;;8045164;29;20061;-96
2022/08/17 02:40:21;;;;;;;15.40;10.40;;;;;;;;;;8047044;29;20140;-96
2022/08/17 02:44:26;;;;;;;16.88;11.18;;;;;;;;;;8050542;29;20094;-89
2022/08/17 02:48:35;;;;;;;18.55;11.23;;;;;;;;;;8052267;29;20236;-87
2022/08/17 02:52:46;;;;;;;19.63;14.48;;;;;;;;;;8066293;29;20054;-96
2022/08/17 02:56:49;;;;;;;23.77;17.90;;;;;;;;;;8108215;29;20056;-91
2022/08/17 03:00:54;;;;;;;24.00;17.60;;;;;;;;;;8219456;28;20063;-89
2022/08/17 03:05:00;;;;;;;19.33;15.10;;;;;;;;;;8249548;28;20055;-89
2022/08/17 03:13:19;;;;;;;15.60;11.10;;;;;;;;;;8253683;28;20125;-91
2022/08/17 03:17:21;;;;;;;16.23;10.73;;;;;;;;;;8257215;28;20058;-93
2022/08/17 03:21:34;;;;;;;14.30;11.02;;;;;;;;;;8246639;28;20054;-88
2022/08/17 03:26:01;;;;;;;16.52;9.95;;;;;;;;;;8236897;28;20035;-88
2022/08/17 03:30:28;;;;;;;15.80;10.43;;;;;;;;;;8244373;28;20082;-89
2022/08/17 03:34:35;;;;;;;12.98;9.93;;;;;;;;;;8239860;28;20106;-90
2022/08/17 03:38:43;;;;;;;15.95;10.77;;;;;;;;;;8247011;28;20513;-88
2022/08/17 03:42:46;;;;;;;18.02;13.45;;;;;;;;;;8252166;28;20113;-93
2022/08/17 04:00:26;;;;;;;14.15;8.95;;;;;;;;;;8242372;28;20051;-89
2022/08/17 04:04:29;;;;;;;15.73;10.68;;;;;;;;;;8233755;28;20031;-89
2022/08/17 04:08:37;;;;;;;14.48;10.00;;;;;;;;;;8235186;28;20051;-92
2022/08/17 04:12:57;;;;;;;15.50;9.95;;;;;;;;;;8211605;28;20063;-89
2022/08/17 04:16:59;;;;;;;14.20;10.43;;;;;;;;;;8239778;28;20074;-91
2022/08/17 04:21:04;;;;;;;15.63;10.45;;;;;;;;;;8250201;28;20055;-89
2022/08/17 04:25:20;;;;;;;13.07;10.85;;;;;;;;;;8233974;28;20086;-88
2022/08/17 04:38:02;;;;;;;17.70;12.00;;;;;;;;;;8258484;28;20538;-88
2022/08/17 04:46:53;;;;;;;18.73;12.82;;;;;;;;;;8233666;28;20057;-89
2022/08/17 04:51:21;;;;;;;20.48;12.82;;;;;;;;;;8245476;28;20040;-90
2022/08/17 04:56:04;;;;;;;20.40;13.60;;;;;;;;;;8211872;28;20079;-89
2022/08/17 05:00:18;;;;;;;23.65;13.63;;;;;;;;;;8243136;28;20055;-89
2022/08/17 05:04:41;;;;;;;17.40;13.07;;;;;;;;;;8262404;28;20031;-95
2022/08/17 05:08:44;;;;;;;;;;;;;;;;;;8153773;29;20063;-88
2022/08/17 05:13:08;;;;;;;16.73;12.88;;;;;;;;;;8133897;29;19931;-89
2022/08/17 05:17:16;;;;;;;19.38;13.60;;;;;;;;;;8169697;29;20048;-88
2022/08/17 05:21:29;;;;;;;28.75;16.38;;;;;;;;;;8163176;29;20076;-88
2022/08/17 05:25:35;;;;;;;20.98;15.88;;;;;;;;;;8166165;28;20032;-91
2022/08/17 05:30:01;;;;;;;26.23;20.45;;;;;;;;;;8226005;28;20078;-87
2022/08/17 05:34:06;;;;;;;27.55;23.35;;;;;;;;;;8232688;28;20059;-87
2022/08/17 05:42:23;;;;;;;30.10;24.33;;;;;;;;;;8258729;23;20146;-96
2022/08/17 05:46:31;;;;;;;26.48;22.17;;;;;;;;;;8438551;23;20457;-91
2022/08/17 05:50:44;;;;;;;31.23;27.88;;;;;;;;;;8232274;28;20089;-96
2022/08/17 05:55:03;;;;;;;26.92;22.38;;;;;;;;;;8228570;28;20063;-85
2022/08/17 05:59:15;;;;;;;26.08;21.50;;;;;;;;;;8240482;28;20058;-85
2022/08/17 06:03:43;;;;;;;31.48;22.30;;;;;;;;;;8253399;28;20058;-84
2022/08/17 06:07:56;;;;;;;26.13;20.13;;;;;;;;;;8236340;28;20063;-86
2022/08/17 06:12:19;;;;;;;25.50;19.08;;;;;;;;;;8245269;28;20054;-90
2022/08/17 06:16:35;;;;;;;24.25;17.52;;;;;;;;;;8244379;28;20070;-96
2022/08/17 06:20:46;;;;;;;19.48;16.00;;;;;;;;;;8240989;28;20051;-89
2022/08/17 06:24:55;;;;;;;24.00;16.50;;;;;;;;;;8234321;28;20058;-90
2022/08/17 06:29:01;;;;;;;21.83;16.50;;;;;;;;;;8235186;28;20050;-87
2022/08/17 06:33:11;;;;;;;18.13;15.75;;;;;;;;;;8237280;28;20114;-87
2022/08/17 06:37:25;;;;;;;22.63;15.90;;;;;;;;;;8233581;28;20055;-90
2022/08/17 06:41:38;;;;;;;19.98;14.40;;;;;;;;;;8234542;28;20059;-96
2022/08/17 07:03:46;;;;;;;16.63;12.68;;;;;;;;;;8440140;27;20415;-90
2022/08/17 07:08:02;;;;;;;17.48;12.70;;;;;;;;;;8434871;28;20047;-92
2022/08/17 07:12:11;;;;;;;16.02;12.05;;;;;;;;;;8424033;28;20048;-94
2022/08/17 07:16:31;;;;;;;16.45;11.98;;;;;;;;;;8414368;28;20287;-96
2022/08/17 07:20:36;;;;;;;15.02;11.30;;;;;;;;;;8437001;28;20044;-93
2022/08/17 07:24:46;;;;;;;17.08;11.48;;;;;;;;;;8420015;28;20036;-91
2022/08/17 07:28:49;;;;;;;23.13;11.93;;;;;;;;;;8425466;28;20048;-96
2022/08/17 07:32:56;;;;;;;15.30;12.18;;;;;;;;;;8425970;28;20288;-93
2022/08/17 07:37:04;;;;;;;13.32;10.55;;;;;;;;;;8424645;28;20059;-94
2022/08/17 07:41:10;;;;;;;13.20;10.73;;;;;;;;;;8416625;28;20044;-92
2022/08/17 07:49:37;;;;;;;13.02;10.77;;;;;;;;;;8424517;28;20052;-94
2022/08/17 07:53:41;;;;;;;14.48;10.95;;;;;;;;;;8413766;28;20051;-94
2022/08/17 07:57:56;;;;;;;20.33;11.27;;;;;;;;;;8415425;28;20050;-94
2022/08/17 08:02:25;;;;;;;12.45;10.45;;;;;;;;;;8430076;28;20048;-94
2022/08/17 08:06:28;;;;;;;12.35;10.77;;;;;;;;;;8421196;28;20051;-94
2022/08/17 08:10:37;;;;;;;12.25;10.85;;;;;;;;;;8419401;28;20502;-93
2022/08/17 08:14:42;;;;;;;14.57;11.07;;;;;;;;;;8417205;28;20119;-95
2022/08/17 08:18:48;;;;;;;13.40;11.15;;;;;;;;;;8412236;28;20032;-93
2022/08/17 08:23:03;;;;;;;14.40;10.65;;;;;;;;;;8386599;28;20048;-93
2022/08/17 08:27:21;;;;;;;14.07;10.57;;;;;;;;;;8379649;28;20127;-96
2022/08/17 08:31:42;;;;;;;14.52;10.15;;;;;;;;;;8350470;23;20053;-94
2022/08/17 08:36:05;;;;;;;15.07;11.00;;;;;;;;;;8334336;28;20045;-92
2022/08/17 08:51:37;;;;;;;14.02;9.93;;;;;;;;;;8293793;28;20050;-90
2022/08/17 08:55:55;;;;;;;15.02;10.88;;;;;;;;;;8286392;28;20416;-93
2022/08/17 09:00:11;;;;;;;16.38;10.85;;;;;;;;;;8293569;28;20488;-89
2022/08/17 09:04:48;;;;;;;;;;;;;;;;;;;;;
2022/08/17 09:09:44;;;;;;;14.75;10.40;;;;;;;;;;8290995;28;20103;-92
2022/08/17 09:14:13;;;;;;;13.63;10.32;;;;;;;;;;8268756;28;20455;-91
2022/08/17 09:27:14;;;;;;;;;;;;;;;;;;;;;
2022/08/17 09:32:32;;;;;;;13.60;10.05;;;;;;;;;;8302690;23;20056;-94
2022/08/17 09:36:42;;;;;;;13.75;10.23;;;;;;;;;;8319332;28;20049;-92
2022/08/17 09:40:50;;;;;;;14.85;10.80;;;;;;;;;;8316859;28;20053;-91
2022/08/17 09:45:02;;;;;;;13.55;10.48;;;;;;;;;;8318466;28;20465;-91
2022/08/17 09:49:10;;;;;;;14.38;10.82;;;;;;;;;;8306992;28;20060;-90
2022/08/17 09:53:14;;;;;;;17.00;10.95;;;;;;;;;;8306344;28;20052;-90
2022/08/17 09:57:28;;;;;;;13.27;11.00;;;;;;;;;;8300010;28;20066;-90
2022/08/17 10:02:10;;;;;;;15.65;10.55;;;;;;;;;;8312677;28;20506;-92
2022/08/17 10:06:30;;;;;;;15.52;10.50;;;;;;;;;;8242612;28;20045;-96
2022/08/17 10:10:57;;;;;;;12.70;9.68;;;;;;;;;;8324261;28;20068;-91
2022/08/17 10:15:21;;;;;;;13.02;10.10;;;;;;;;;;8308021;28;20060;-93
2022/08/17 10:19:37;;;;;;;13.65;9.82;;;;;;;;;;8309829;28;20048;-95
2022/08/17 10:28:08;;;;;;;13.60;9.90;;;;;;;;;;8308390;28;20041;-92
2022/08/17 10:32:14;;;;;;;12.45;9.68;;;;;;;;;;8306318;28;20045;-91
2022/08/17 10:36:25;;;;;;;11.57;9.02;;;;;;;;;;8306757;28;20505;-90
2022/08/17 10:40:36;;;;;;;14.80;9.45;;;;;;;;;;8300778;28;20536;-92
2022/08/17 10:44:49;;;;;;;13.05;9.43;;;;;;;;;;8298801;28;20041;-91
2022/08/17 10:49:14;;;;;;;11.63;8.75;;;;;;;;;;8308905;28;20120;-90
2022/08/17 10:53:52;;;;;;;13.98;9.38;;;;;;;;;;8300093;28;20050;-90
2022/08/17 10:58:20;;;;;;;13.85;9.40;;;;;;;;;;8305119;28;20073;-92
2022/08/17 11:02:27;;;;;;;13.48;9.30;;;;;;;;;;8318605;28;20041;-90
2022/08/17 11:06:52;;;;;;;14.43;10.27;;;;;;;;;;8322821;28;20045;-90
2022/08/17 11:29:52;;;;;;;11.68;9.88;;;;;;;;;;8448392;27;20358;-91
2022/08/17 11:34:07;;;;;;;22.13;12.48;;;;;;;;;;8453804;28;20479;-89
2022/08/17 11:38:39;;;;;;;17.42;11.55;;;;;;;;;;8453299;28;20054;-91
2022/08/17 11:43:44;;;;;;;20.35;11.80;;;;;;;;;;8446646;28;20387;-91
2022/08/17 11:53:31;;;;;;;22.75;14.57;;;;;;;;;;8448882;28;20149;-92
2022/08/17 12:21:50;;;;;;;15.23;9.80;;;;;;;;;;8340723;28;20042;-93
2022/08/17 12:26:00;;;;;;;13.57;9.70;;;;;;;;;;8301602;28;20046;-91
2022/08/17 12:30:09;;;;;;;14.32;9.45;;;;;;;;;;8291921;28;20054;-90
2022/08/17 12:34:18;;;;;;;15.25;10.07;;;;;;;;;;8310242;28;20058;-91
2022/08/17 12:38:32;;;;;;;12.38;9.30;;;;;;;;;;8296501;28;20057;-89
2022/08/17 12:42:56;;;;;;;16.30;10.77;;;;;;;;;;8312599;28;20076;-91
2022/08/17 12:47:20;;;;;;;17.30;9.50;;;;;;;;;;8320840;28;20473;-93
2022/08/17 12:51:46;;;;;;;12.63;10.07;;;;;;;;;;8333037;28;20466;-90
2022/08/17 12:56:13;;;;;;;13.82;9.15;;;;;;;;;;8336529;28;20897;-91
2022/08/17 13:00:21;;;;;;;11.88;9.88;;;;;;;;;;8321641;28;20436;-91
2022/08/17 13:04:27;;;;;;;19.13;10.55;;;;;;;;;;8323697;28;20475;-92
2022/08/17 13:08:35;;;;;;;14.25;9.80;;;;;;;;;;8327610;28;20075;-89
2022/08/17 13:12:39;;;;;;;19.45;9.85;;;;;;;;;;8328398;28;20041;-92
2022/08/17 13:16:48;;;;;;;13.27;9.75;;;;;;;;;;8322533;28;20057;-89
2022/08/17 13:21:18;;;;;;;14.70;10.07;;;;;;;;;;8327155;28;20038;-89
2022/08/17 13:25:22;;;;;;;12.10;9.63;;;;;;;;;;8312720;28;20484;-95
2022/08/17 13:29:28;;;;;;;13.23;9.27;;;;;;;;;;8319301;28;20103;-93
2022/08/17 13:33:32;;;;;;;15.80;9.90;;;;;;;;;;8324713;28;20099;-91
2022/08/17 13:37:36;;;;;;;13.15;9.48;;;;;;;;;;8328948;28;20428;-95
2022/08/17 13:41:40;;;;;;;14.07;8.80;;;;;;;;;;8310560;28;20049;-94
2022/08/17 13:45:49;;;;;;;13.50;9.38;;;;;;;;;;8317201;28;20048;-91
2022/08/17 13:49:52;;;;;;;12.15;9.18;;;;;;;;;;8319741;28;20390;-89
2022/08/17 13:53:59;;;;;;;14.13;8.65;;;;;;;;;;8329050;28;20046;-89
2022/08/17 13:58:03;;;;;;;12.50;8.57;;;;;;;;;;8314002;28;20143;-90
2022/08/17 14:02:08;;;;;;;10.90;8.30;;;;;;;;;;8317978;28;20044;-89
2022/08/17 14:06:11;;;;;;;10.00;8.52;;;;;;;;;;8312852;28;20124;-90
2022/08/17 14:10:24;;;;;;;13.85;8.55;;;;;;;;;;8307527;28;20048;-93
2022/08/17 14:14:38;;;;;;;13.75;8.65;;;;;;;;;;8301109;28;20041;-90
2022/08/17 14:24:22;;;;;;;14.50;9.13;;;;;;;;;;8295090;28;20048;-92
2022/08/17 14:28:25;;;;;;;11.05;9.65;;;;;;;;;;8315704;28;20056;-94
2022/08/17 14:32:32;;;;;;;16.10;10.55;;;;;;;;;;8328466;28;20477;-90
2022/08/17 14:36:35;;;;;;;16.15;8.90;;;;;;;;;;8330384;28;20044;-89
2022/08/17 14:45:14;;;;;;;18.67;12.65;;;;;;;;;;8433146;23;20120;-93
2022/08/17 14:49:19;;;;;;;27.65;12.88;;;;;;;;;;8298412;28;20045;-95
2022/08/17 14:53:22;;;;;;;19.35;17.10;;;;;;;;;;8296705;28;20475;-95
2022/08/17 14:57:26;;;;;;;17.98;13.00;;;;;;;;;;8300750;28;20050;-91
2022/08/17 15:01:29;;;;;;;13.07;11.68;;;;;;;;;;8307603;28;20046;-90
2022/08/17 15:11:10;;;;;;;13.95;10.68;;;;;;;;;;8360121;28;20079;-90
2022/08/17 15:15:15;;;;;;;26.40;17.25;;;;;;;;;;8362028;28;20167;-88
2022/08/17 15:23:28;;;;;;;12.10;9.93;;;;;;;;;;8947609;23;20223;-93
2022/08/17 15:27:33;;;;;;;11.52;8.75;;;;;;;;;;8345050;28;20049;-93
2022/08/17 15:31:36;;;;;;;12.93;8.23;;;;;;;;;;8350325;28;20140;-91
2022/08/17 15:35:39;;;;;;;15.80;9.90;;;;;;;;;;8336587;28;20053;-91
2022/08/17 15:39:41;;;;;;;10.38;7.65;;;;;;;;;;8338656;28;20493;-94
2022/08/17 15:43:48;;;;;;;12.45;8.43;;;;;;;;;;8341213;28;20068;-93
2022/08/17 15:47:51;;;;;;;11.18;8.20;;;;;;;;;;8346896;28;20128;-92
2022/08/17 15:51:59;;;;;;;9.48;8.18;;;;;;;;;;8318656;28;20049;-90
2022/08/17 15:56:02;;;;;;;15.20;9.05;;;;;;;;;;8342397;28;20041;-95
2022/08/17 16:00:11;;;;;;;14.55;10.63;;;;;;;;;;8352557;28;20060;-90
2022/08/17 16:04:39;;;;;;;15.20;10.88;;;;;;;;;;8352400;28;20045;-89
2022/08/17 16:08:53;;;;;;;10.88;8.88;;;;;;;;;;8322341;28;20143;-88
2022/08/17 16:13:16;;;;;;;9.70;8.65;;;;;;;;;;8323959;28;20056;-90
2022/08/17 16:17:45;;;;;;;20.58;10.82;;;;;;;;;;8345304;28;20496;-90
2022/08/17 16:22:13;;;;;;;14.95;10.43;;;;;;;;;;8333107;28;20583;-91
2022/08/17 16:26:39;;;;;;;13.45;10.77;;;;;;;;;;8347649;28;20053;-90
2022/08/17 16:30:59;;;;;;;18.98;10.55;;;;;;;;;;8343111;28;20547;-92
2022/08/17 16:35:33;;;;;;;14.75;9.73;;;;;;;;;;8346931;28;20036;-91
2022/08/17 16:39:40;;;;;;;15.07;9.63;;;;;;;;;;8339311;28;20474;-89
2022/08/17 16:43:44;;;;;;;12.07;9.85;;;;;;;;;;8347809;28;20045;-89
2022/08/17 16:48:10;;;;;;;11.73;9.85;;;;;;;;;;8346236;28;20050;-89
2022/08/17 16:52:54;;;;;;;12.18;9.02;;;;;;;;;;8819270;22;20084;-89
2022/08/17 16:57:54;;;;;;;13.82;9.52;;;;;;;;;;8164556;29;20047;-88
2022/08/17 17:02:35;;;;;;;17.23;9.90;;;;;;;;;;8162356;29;20072;-90
2022/08/17 17:07:10;;;;;;;13.68;10.10;;;;;;;;;;8166092;29;20052;-92
2022/08/17 17:11:41;;;;;;;12.82;10.55;;;;;;;;;;8166884;29;20048;-92
2022/08/17 17:16:34;;;;;;;20.65;12.85;;;;;;;;;;8149833;29;20067;-90
2022/08/17 17:21:03;;;;;;;16.80;12.48;;;;;;;;;;8165969;29;20078;-92
2022/08/17 17:25:43;;;;;;;13.82;11.88;;;;;;;;;;8160779;29;20433;-92
2022/08/17 17:30:07;;;;;;;16.10;12.88;;;;;;;;;;8163103;29;20051;-92
2022/08/17 17:39:57;;;;;;;17.13;12.85;;;;;;;;;;8164495;29;20412;-91
2022/08/17 17:44:06;;;;;;;18.63;13.77;;;;;;;;;;8165081;29;20055;-93
2022/08/17 17:52:36;;;;;;;17.33;14.15;;;;;;;;;;8379319;23;20053;-91
2022/08/17 17:56:46;;;;;;;13.80;12.30;;;;;;;;;;8317842;28;20050;-93
2022/08/17 18:01:09;;;;;;;14.45;12.82;;;;;;;;;;8325753;23;20067;-91
2022/08/17 18:05:34;;;;;;;19.90;13.40;;;;;;;;;;8356893;28;20127;-92
2022/08/17 18:10:01;;;;;;;16.38;13.10;;;;;;;;;;8357186;28;20084;-93
2022/08/17 18:14:45;;;;;;;16.75;13.70;;;;;;;;;;8331339;28;20449;-90
2022/08/17 18:19:04;;;;;;;17.63;13.43;;;;;;;;;;8342544;28;20136;-92
2022/08/17 18:23:23;;;;;;;17.17;13.45;;;;;;;;;;8355691;28;20098;-90
2022/08/17 18:27:49;;;;;;;18.55;14.63;;;;;;;;;;8359153;28;20041;-90
2022/08/17 18:32:26;;;;;;;19.65;14.52;;;;;;;;;;8354966;28;20409;-91
2022/08/17 18:36:33;;;;;;;21.55;14.63;;;;;;;;;;8344873;28;20053;-91
2022/08/17 18:40:37;;;;;;;18.35;14.07;;;;;;;;;;8362003;28;20057;-91
2022/08/17 18:44:44;;;;;;;18.65;14.07;;;;;;;;;;8357478;28;20210;-91
2022/08/17 18:48:53;;;;;;;23.48;14.75;;;;;;;;;;8362356;28;20076;-91
2022/08/17 18:53:30;;;;;;;22.30;13.93;;;;;;;;;;8356217;28;20477;-91
2022/08/17 18:57:36;;;;;;;18.52;12.60;;;;;;;;;;8357225;28;20047;-90
2022/08/17 19:01:57;;;;;;;16.55;13.75;;;;;;;;;;8342942;28;20484;-91
2022/08/17 19:06:22;;;;;;;20.48;14.10;;;;;;;;;;8356743;28;20124;-91
2022/08/17 19:10:32;;;;;;;22.02;13.65;;;;;;;;;;8345933;28;20484;-92
2022/08/17 19:14:36;;;;;;;20.50;13.82;;;;;;;;;;8346716;28;20045;-90
2022/08/17 19:18:46;;;;;;;16.40;14.48;;;;;;;;;;8345930;28;20055;-89
2022/08/17 19:23:06;;;;;;;19.50;14.43;;;;;;;;;;8360231;28;20044;-91
2022/08/17 19:27:15;;;;;;;17.15;13.85;;;;;;;;;;8347603;28;20049;-89
2022/08/17 19:31:22;;;;;;;18.08;13.25;;;;;;;;;;8348491;28;20428;-89
2022/08/17 19:35:38;;;;;;;16.50;13.60;;;;;;;;;;8341607;28;20052;-90
2022/08/17 19:39:49;;;;;;;15.63;12.55;;;;;;;;;;8353198;28;20561;-90
2022/08/17 19:44:06;;;;;;;;;;;;;;;;;;8350810;28;20480;-89
2022/08/17 19:48:19;;;;;;;17.65;14.50;;;;;;;;;;8341455;28;20506;-91
2022/08/17 19:52:43;;;;;;;16.60;13.52;;;;;;;;;;8368200;28;20041;-91
2022/08/17 19:56:55;;;;;;;17.42;12.63;;;;;;;;;;8366812;28;20041;-90
2022/08/17 20:00:58;;;;;;;16.40;13.15;;;;;;;;;;8359487;28;20065;-89
2022/08/17 20:05:05;;;;;;;14.50;12.48;;;;;;;;;;8360666;28;20607;-91
2022/08/17 20:09:16;;;;;;;18.95;14.00;;;;;;;;;;8376243;28;20438;-91
2022/08/17 20:13:24;;;;;;;17.00;13.23;;;;;;;;;;8390500;28;20502;-91
2022/08/17 20:17:31;;;;;;;19.27;13.93;;;;;;;;;;8393831;28;20479;-91
2022/08/17 20:21:42;;;;;;;15.60;12.13;;;;;;;;;;8391435;28;20049;-92
2022/08/17 20:25:53;;;;;;;15.82;13.45;;;;;;;;;;8377183;28;20127;-90
2022/08/17 20:30:04;;;;;;;16.60;13.30;;;;;;;;;;8354237;28;20124;-91
2022/08/17 20:34:29;;;;;;;20.60;15.60;;;;;;;;;;8342070;28;20047;-89
2022/08/17 20:38:44;;;;;;;20.15;15.45;;;;;;;;;;8371443;28;20040;-91
2022/08/17 20:42:48;;;;;;;16.77;14.15;;;;;;;;;;8377530;28;20044;-90
2022/08/17 20:46:58;;;;;;;17.55;14.75;;;;;;;;;;8383914;28;20049;-89
2022/08/17 20:51:27;;;;;;;21.27;16.33;;;;;;;;;;8374360;28;20044;-90
2022/08/17 20:55:54;;;;;;;22.20;15.35;;;;;;;;;;8382545;28;20048;-90
2022/08/17 21:00:13;;;;;;;20.05;14.60;;;;;;;;;;8383386;28;20448;-90
2022/08/17 21:04:46;;;;;;;19.35;16.13;;;;;;;;;;8367271;28;20404;-91
2022/08/17 21:08:53;;;;;;;19.10;16.10;;;;;;;;;;8371096;28;20056;-91
2022/08/17 21:13:01;;;;;;;20.17;16.27;;;;;;;;;;8391594;28;20052;-90
2022/08/17 21:17:28;;;;;;;19.10;16.65;;;;;;;;;;8394752;28;20041;-89
2022/08/17 21:21:41;;;;;;;24.42;15.98;;;;;;;;;;8394857;28;20041;-90
2022/08/17 21:26:01;;;;;;;20.00;16.38;;;;;;;;;;8388666;28;20308;-89
2022/08/17 21:30:39;;;;;;;23.17;16.55;;;;;;;;;;8385083;28;20044;-90
2022/08/17 21:34:44;;;;;;;20.67;15.23;;;;;;;;;;8366592;28;20045;-90
2022/08/17 21:38:56;;;;;;;20.65;15.77;;;;;;;;;;8366593;28;20045;-90
2022/08/17 21:43:07;;;;;;;24.40;17.27;;;;;;;;;;8363625;28;20052;-90
2022/08/17 21:47:15;;;;;;;25.05;17.33;;;;;;;;;;8364799;28;20052;-89
2022/08/17 21:51:22;;;;;;;23.23;18.25;;;;;;;;;;8364564;28;20420;-90
2022/08/17 21:55:28;;;;;;;24.20;18.77;;;;;;;;;;8364354;28;20468;-89
2022/08/17 21:59:34;;;;;;;23.13;17.55;;;;;;;;;;8364187;28;20128;-91
2022/08/17 22:03:37;;;;;;;19.45;16.23;;;;;;;;;;8363432;28;20061;-90
2022/08/17 22:07:44;;;;;;;21.70;16.73;;;;;;;;;;8364056;28;20073;-90
2022/08/17 22:12:03;;;;;;;21.13;16.55;;;;;;;;;;8363990;28;20045;-89
2022/08/17 22:16:13;;;;;;;20.20;15.98;;;;;;;;;;8364022;28;20051;-91
2022/08/17 22:20:18;;;;;;;23.77;18.40;;;;;;;;;;8363774;28;20118;-90
2022/08/17 22:24:23;;;;;;;22.67;17.58;;;;;;;;;;8363538;28;20048;-90
2022/08/17 22:28:37;;;;;;;22.88;17.48;;;;;;;;;;8363680;28;20045;-90
2022/08/17 22:32:42;;;;;;;22.33;17.92;;;;;;;;;;8363355;28;20055;-90
2022/08/17 22:36:45;;;;;;;22.02;18.35;;;;;;;;;;8363533;28;20054;-90
2022/08/17 22:40:51;;;;;;;23.20;19.35;;;;;;;;;;8363311;28;20067;-90
2022/08/17 22:44:54;;;;;;;22.38;18.33;;;;;;;;;;8363288;28;20086;-90
2022/08/17 22:48:59;;;;;;;21.73;17.50;;;;;;;;;;8362974;28;20048;-90
2022/08/17 23:02:18;;;;;;;22.63;18.20;;;;;;;;;;8362380;28;20106;-90
2022/08/17 23:06:20;;;;;;;23.05;17.95;;;;;;;;;;8362597;28;20072;-90
2022/08/17 23:10:24;;;;;;;22.80;17.98;;;;;;;;;;8362321;28;20045;-90
2022/08/17 23:14:30;;;;;;;23.05;17.98;;;;;;;;;;8362205;28;20041;-90
2022/08/17 23:18:33;;;;;;;24.83;19.83;;;;;;;;;;8362294;28;20522;-91
2022/08/17 23:22:36;;;;;;;24.70;18.42;;;;;;;;;;8362245;28;20045;-90
2022/08/17 23:26:39;;;;;;;21.25;18.73;;;;;;;;;;8362019;28;20052;-90
2022/08/17 23:30:45;;;;;;;22.60;17.48;;;;;;;;;;8362124;28;20124;-90
2022/08/17 23:34:49;;;;;;;20.20;17.15;;;;;;;;;;8363976;28;20049;-90
2022/08/17 23:38:52;;;;;;;24.17;16.63;;;;;;;;;;8362042;28;20128;-89
2022/08/17 23:42:55;;;;;;;20.90;16.80;;;;;;;;;;8361835;28;20564;-89
2022/08/17 23:47:02;;;;;;;23.73;17.92;;;;;;;;;;8362043;28;20158;-90
2022/08/17 23:51:09;;;;;;;22.88;17.90;;;;;;;;;;8361650;28;20052;-90
2022/08/17 23:55:33;;;;;;;21.92;17.58;;;;;;;;;;8350411;28;20049;-94
2022/08/17 23:59:36;;;;;;;22.15;17.00;;;;;;;;;;8347955;28;20128;-91
